Time;durP1;ratioP1;P1;durP2;ratioP2;P2;SDS_P1;SDS_P2;PMS_P1;PMS_P2;Temp;Humidity;BMP_temperature;BMP_pressure;BME280_temperature;BME280_humidity;BME280_pressure;Samples;Min_cycle;Max_cycle;Signal;HPM_P1;HPM_P2
2023/03/19 00:03:13;;;;;;;9.15;4.18;;;;;;;12.08;92.05;100173.75;8402730;28;20109;-55
2023/03/19 00:07:14;;;;;;;7.85;4.00;;;;;;;11.92;92.96;100165.50;8401574;28;20065;-54
2023/03/19 00:11:15;;;;;;;9.82;4.13;;;;;;;11.86;93.64;100157.00;8403771;28;20433;-54
2023/03/19 00:15:15;;;;;;;10.15;4.25;;;;;;;11.67;95.13;100157.19;8403978;28;20036;-54
2023/03/19 00:19:16;;;;;;;8.63;4.13;;;;;;;11.56;95.94;100159.25;8409530;28;20044;-54
2023/03/19 00:23:17;;;;;;;11.32;4.90;;;;;;;11.56;96.35;100168.19;8410441;28;20040;-55
2023/03/19 00:27:17;;;;;;;7.25;4.28;;;;;;;11.40;96.12;100181.59;8413210;28;20410;-54
2023/03/19 00:31:17;;;;;;;8.43;4.97;;;;;;;11.20;98.71;100165.66;8393552;28;20032;-54
2023/03/19 00:35:18;;;;;;;5.55;4.25;;;;;;;11.23;98.07;100171.59;8413122;28;20040;-54
2023/03/19 00:39:20;;;;;;;8.45;4.65;;;;;;;11.07;99.84;100162.47;8412085;28;20032;-54
2023/03/19 00:43:21;;;;;;;5.18;4.68;;;;;;;11.09;98.72;100161.31;8409700;28;20066;-57
2023/03/19 00:47:22;;;;;;;6.28;4.07;;;;;;;11.01;99.07;100153.09;8402337;28;20041;-55
2023/03/19 00:51:23;;;;;;;7.15;5.10;;;;;;;10.88;100.00;100160.72;8392386;28;20051;-54
2023/03/19 00:55:24;;;;;;;6.45;4.78;;;;;;;10.94;100.00;100165.53;8395208;28;20040;-53
2023/03/19 00:59:25;;;;;;;8.10;4.75;;;;;;;10.98;98.85;100152.56;8417380;28;20446;-53
2023/03/19 01:03:25;;;;;;;9.95;4.13;;;;;;;11.09;97.49;100158.59;8426134;28;20036;-54
2023/03/19 01:07:25;;;;;;;5.05;3.03;;;;;;;11.30;95.16;100170.00;8428676;28;20115;-53
2023/03/19 01:11:26;;;;;;;6.70;3.70;;;;;;;11.42;93.51;100163.34;8428401;28;20036;-55
2023/03/19 01:15:27;;;;;;;7.88;3.53;;;;;;;11.39;92.98;100160.09;8428446;28;20040;-55
2023/03/19 01:19:28;;;;;;;4.68;2.30;;;;;;;11.39;92.61;100163.66;8427771;28;20085;-54
2023/03/19 01:23:29;;;;;;;4.10;2.33;;;;;;;11.45;92.30;100163.03;8428079;28;20043;-54
2023/03/19 01:27:31;;;;;;;5.97;2.13;;;;;;;11.62;91.50;100164.91;8415236;28;20101;-54
2023/03/19 01:31:31;;;;;;;4.68;1.80;;;;;;;11.76;90.65;100155.38;8424289;28;20088;-54
2023/03/19 01:35:46;;;;;;;2.63;1.75;;;;;;;11.84;89.60;100153.56;8415172;28;20074;-52
2023/03/19 01:39:47;;;;;;;2.67;1.60;;;;;;;11.96;88.93;100158.75;8427334;28;20512;-54
2023/03/19 01:43:48;;;;;;;2.88;1.85;;;;;;;11.97;88.89;100152.31;8426937;28;20051;-54
2023/03/19 01:48:19;;;;;;;2.97;1.90;;;;;;;11.76;90.24;100150.81;8427432;28;20545;-54
2023/03/19 01:52:33;;;;;;;5.45;2.22;;;;;;;11.59;91.37;100159.78;8427213;28;20036;-55
2023/03/19 01:56:53;;;;;;;3.50;2.30;;;;;;;11.40;92.21;100154.53;8427268;28;20043;-55
2023/03/19 02:00:59;;;;;;;4.50;2.10;;;;;;;11.59;91.50;100158.94;8406064;28;20243;-52
2023/03/19 02:05:24;;;;;;;4.38;1.98;;;;;;;11.79;91.12;100155.06;8384908;28;20036;-53
2023/03/19 02:09:27;;;;;;;4.18;1.90;;;;;;;11.85;91.44;100146.31;8396130;28;20406;-54
2023/03/19 02:13:28;;;;;;;4.00;1.95;;;;;;;11.96;91.45;100146.06;8393426;28;20036;-54
2023/03/19 02:17:31;;;;;;;4.65;1.73;;;;;;;12.06;91.25;100146.81;8393427;28;20039;-54
2023/03/19 02:21:31;;;;;;;3.83;2.10;;;;;;;12.05;90.95;100144.25;8392915;28;20032;-54
2023/03/19 02:30:18;;;;;;;3.92;2.22;;;;;;;11.81;92.94;100148.47;8356094;27;20407;-54
2023/03/19 02:38:37;;;;;;;6.05;2.33;;;;;;;11.73;92.92;100151.13;8410500;27;20446;-53
2023/03/19 02:42:37;;;;;;;3.55;2.25;;;;;;;11.73;93.54;100153.84;8405269;28;20039;-52
2023/03/19 02:46:38;;;;;;;4.90;2.42;;;;;;;11.75;93.44;100143.69;8402816;28;20037;-53
2023/03/19 02:50:39;;;;;;;7.28;2.95;;;;;;;11.77;93.64;100151.66;8403778;28;20488;-51
2023/03/19 02:54:39;;;;;;;5.45;2.28;;;;;;;11.76;93.85;100163.50;8403046;28;20040;-52
2023/03/19 02:58:40;;;;;;;3.92;2.70;;;;;;;11.62;94.55;100151.38;8402979;27;20135;-53
2023/03/19 03:02:40;;;;;;;4.70;2.95;;;;;;;11.63;94.77;100161.22;8391038;27;20048;-53
2023/03/19 03:06:42;;;;;;;7.90;2.88;;;;;;;11.54;95.33;100156.69;8401858;27;20044;-53
2023/03/19 03:10:43;;;;;;;4.75;2.83;;;;;;;11.43;95.76;100156.91;8401889;27;20060;-53
2023/03/19 03:14:44;;;;;;;7.10;3.20;;;;;;;11.34;96.17;100155.13;8402012;27;20070;-53
2023/03/19 03:18:45;;;;;;;3.92;2.88;;;;;;;11.23;96.50;100144.53;8405510;27;20577;-52
2023/03/19 03:22:45;;;;;;;3.47;2.70;;;;;;;11.24;96.41;100139.97;8401856;27;20506;-53
2023/03/19 03:26:46;;;;;;;4.68;2.80;;;;;;;11.25;96.27;100156.06;8402433;27;20035;-53
2023/03/19 03:30:49;;;;;;;5.85;3.10;;;;;;;11.18;96.74;100160.41;8402661;27;20495;-53
2023/03/19 03:34:49;;;;;;;12.90;2.80;;;;;;;11.13;97.59;100173.53;8402301;27;20506;-53
2023/03/19 03:38:50;;;;;;;6.18;2.90;;;;;;;10.89;98.95;100175.13;8401848;27;20048;-58
2023/03/19 03:42:51;;;;;;;6.68;3.33;;;;;;;10.71;99.74;100183.19;8401896;27;20032;-58
2023/03/19 03:46:52;;;;;;;7.38;3.78;;;;;;;10.64;100.00;100183.94;8412648;28;20043;-57
2023/03/19 03:50:53;;;;;;;6.22;3.33;;;;;;;10.38;100.00;100191.84;8395048;28;20045;-54
2023/03/19 03:54:59;;;;;;;9.82;4.03;;;;;;;10.02;100.00;100189.91;8394908;28;20503;-54
2023/03/19 03:59:00;;;;;;;6.05;3.33;;;;;;;9.89;100.00;100178.56;8393798;28;20098;-52
2023/03/19 04:03:01;;;;;;;6.00;3.22;;;;;;;9.84;100.00;100178.13;8383050;28;20052;-54
2023/03/19 04:07:03;;;;;;;6.10;3.30;;;;;;;10.24;100.00;100180.66;8361482;28;20041;-53
2023/03/19 04:11:12;;;;;;;6.45;3.10;;;;;;;10.25;100.00;100180.53;8360297;28;20395;-54
2023/03/19 04:15:13;;;;;;;5.30;2.65;;;;;;;10.28;100.00;100182.88;8362348;28;20036;-53
2023/03/19 04:19:16;;;;;;;5.53;3.00;;;;;;;10.18;100.00;100184.78;8372440;28;20037;-51
2023/03/19 04:23:17;;;;;;;4.28;2.45;;;;;;;10.35;100.00;100189.44;8394452;28;20741;-53
2023/03/19 04:27:17;;;;;;;5.07;2.67;;;;;;;10.21;100.00;100194.47;8394742;28;20047;-53
2023/03/19 04:31:18;;;;;;;5.22;3.00;;;;;;;10.33;100.00;100195.97;8426899;28;20140;-53
2023/03/19 04:35:19;;;;;;;6.53;3.10;;;;;;;10.53;100.00;100201.19;8384814;28;20059;-53
2023/03/19 04:39:19;;;;;;;6.47;3.03;;;;;;;10.47;100.00;100204.47;8361223;28;20041;-53
2023/03/19 04:43:22;;;;;;;8.15;3.15;;;;;;;10.44;100.00;100202.06;8361416;28;20033;-53
2023/03/19 04:47:24;;;;;;;6.15;3.00;;;;;;;10.36;100.00;100212.75;8382515;28;20037;-53
2023/03/19 04:51:29;;;;;;;;;;;;;;;10.58;100.00;100214.25;8395311;28;20052;-53
2023/03/19 04:55:30;;;;;;;6.82;2.72;;;;;;;10.99;98.85;100211.91;8392106;28;19920;-53
2023/03/19 04:59:37;;;;;;;4.13;2.65;;;;;;;11.24;97.27;100196.81;8357338;28;20407;-54
2023/03/19 05:03:38;;;;;;;5.25;2.40;;;;;;;11.02;98.12;100202.66;8377472;28;20032;-54
2023/03/19 05:07:40;;;;;;;5.45;2.55;;;;;;;10.82;100.00;100201.03;8377335;28;20082;-60
2023/03/19 05:11:42;;;;;;;3.50;2.25;;;;;;;11.07;99.41;100209.28;8358014;28;20463;-60
2023/03/19 05:15:52;;;;;;;3.25;2.22;;;;;;;11.43;97.20;100219.19;8375670;28;20103;-60
2023/03/19 05:19:54;;;;;;;4.68;2.30;;;;;;;11.63;95.26;100218.06;8399021;28;20059;-60
2023/03/19 05:23:56;;;;;;;3.55;2.05;;;;;;;11.72;94.85;100219.81;8376526;28;20407;-60
2023/03/19 05:27:56;;;;;;;4.18;2.10;;;;;;;11.76;94.50;100215.81;8374849;28;20067;-60
2023/03/19 05:32:01;;;;;;;3.53;2.40;;;;;;;11.86;94.17;100222.00;8415181;28;20044;-61
2023/03/19 05:36:03;;;;;;;5.65;2.58;;;;;;;11.94;93.81;100218.50;8346918;28;20557;-60
2023/03/19 05:40:16;;;;;;;4.83;2.13;;;;;;;12.00;93.60;100222.44;8327787;28;20450;-60
2023/03/19 05:44:20;;;;;;;3.75;2.65;;;;;;;11.96;93.81;100216.50;8359991;28;20037;-60
2023/03/19 05:48:41;;;;;;;4.53;2.63;;;;;;;11.92;94.61;100230.53;8411838;28;20383;-55
2023/03/19 05:52:42;;;;;;;5.40;2.50;;;;;;;11.88;95.18;100238.97;8372785;28;20044;-55
2023/03/19 05:56:44;;;;;;;5.15;2.45;;;;;;;11.56;96.73;100246.72;8423400;28;20063;-54
2023/03/19 06:00:58;;;;;;;2.63;2.42;;;;;;;11.23;99.95;100255.47;8350546;28;20103;-55
2023/03/19 06:04:58;;;;;;;2.67;2.35;;;;;;;10.97;100.00;100257.19;8371620;28;20029;-54
2023/03/19 06:09:03;;;;;;;2.85;2.63;;;;;;;10.90;100.00;100264.22;8373926;28;20040;-55
2023/03/19 06:13:12;;;;;;;5.55;2.90;;;;;;;10.81;100.00;100259.69;8372439;28;20446;-54
2023/03/19 06:17:17;;;;;;;;;;;;;;;10.93;100.00;100263.06;8350909;28;20037;-54
2023/03/19 06:21:18;;;;;;;5.30;3.22;;;;;;;10.94;100.00;100265.59;8346600;28;19920;-53
2023/03/19 06:25:18;;;;;;;5.30;2.63;;;;;;;10.85;100.00;100265.63;8351849;28;20090;-54
2023/03/19 06:29:19;;;;;;;5.50;2.63;;;;;;;10.79;100.00;100266.22;8353071;28;20097;-55
2023/03/19 06:33:26;;;;;;;3.63;3.00;;;;;;;10.78;100.00;100265.38;8362086;28;20503;-54
2023/03/19 06:37:28;;;;;;;3.33;2.88;;;;;;;10.76;100.00;100278.19;8393058;28;20511;-54
2023/03/19 06:41:28;;;;;;;5.43;2.80;;;;;;;10.92;100.00;100273.00;8355367;28;20510;-52
2023/03/19 06:45:38;;;;;;;42.75;14.38;;;;;;;11.12;100.00;100285.47;8351150;28;20119;-53
2023/03/19 06:49:39;;;;;;;10.55;6.05;;;;;;;11.31;100.00;100287.19;8366811;28;20040;-54
2023/03/19 06:53:40;;;;;;;4.95;3.13;;;;;;;11.44;100.00;100285.84;8375545;28;20090;-54
2023/03/19 06:57:40;;;;;;;4.50;2.75;;;;;;;11.51;100.00;100292.38;8354767;28;21624;-53
2023/03/19 07:01:41;;;;;;;3.47;2.80;;;;;;;11.56;100.00;100292.75;8385042;28;20059;-54
2023/03/19 07:05:41;;;;;;;4.20;2.75;;;;;;;11.56;100.00;100300.88;8369757;28;20052;-54
2023/03/19 07:09:42;;;;;;;3.25;2.72;;;;;;;11.52;100.00;100299.47;8366112;28;20043;-54
2023/03/19 07:13:42;;;;;;;5.18;2.88;;;;;;;11.52;100.00;100304.88;8390032;28;20039;-53
2023/03/19 07:17:45;;;;;;;3.47;2.60;;;;;;;11.60;100.00;100307.69;8390837;28;20036;-53
2023/03/19 07:21:45;;;;;;;4.05;3.10;;;;;;;11.74;100.00;100304.47;8366926;28;20522;-53
2023/03/19 07:25:46;;;;;;;8.05;3.50;;;;;;;12.04;100.00;100307.84;8347110;28;20380;-58
2023/03/19 07:29:47;;;;;;;4.28;2.95;;;;;;;12.34;98.83;100323.69;8374321;28;20032;-58
2023/03/19 07:33:47;;;;;;;6.90;4.47;;;;;;;12.50;97.55;100323.84;8372469;28;20051;-59
2023/03/19 07:37:48;;;;;;;4.68;3.78;;;;;;;12.77;96.58;100323.66;8385129;28;20044;-58
2023/03/19 07:41:48;;;;;;;5.03;3.28;;;;;;;12.96;95.81;100321.59;8374557;28;20093;-58
2023/03/19 07:45:49;;;;;;;4.78;3.10;;;;;;;13.13;95.75;100330.72;8368840;28;20094;-59
2023/03/19 07:49:49;;;;;;;3.55;3.10;;;;;;;13.24;94.92;100341.31;8369069;28;20124;-58
2023/03/19 07:53:50;;;;;;;5.15;2.53;;;;;;;13.12;94.39;100337.16;8356890;28;20037;-59
2023/03/19 07:57:50;;;;;;;4.50;2.53;;;;;;;13.02;95.33;100328.28;8343855;28;20091;-59
2023/03/19 08:01:51;;;;;;;5.53;2.33;;;;;;;13.05;95.74;100336.13;8361095;28;20048;-58
2023/03/19 08:05:51;;;;;;;2.97;2.70;;;;;;;13.01;95.76;100332.00;8367452;28;20044;-58
2023/03/19 08:09:52;;;;;;;3.20;2.70;;;;;;;13.06;97.75;100338.69;8370524;28;20410;-58
2023/03/19 08:13:52;;;;;;;3.85;2.55;;;;;;;13.24;96.27;100330.44;8354356;28;20494;-58
2023/03/19 08:17:58;;;;;;;3.10;2.60;;;;;;;13.42;95.05;100333.94;8355292;28;20036;-58
2023/03/19 08:21:58;;;;;;;4.35;2.65;;;;;;;13.76;94.15;100335.56;8366491;28;20040;-58
2023/03/19 08:25:59;;;;;;;4.57;2.55;;;;;;;13.95;93.16;100337.16;8362324;28;20419;-58
2023/03/19 08:30:02;;;;;;;3.60;2.80;;;;;;;14.06;91.69;100350.41;8361628;28;20045;-59
2023/03/19 08:34:03;;;;;;;3.35;3.05;;;;;;;14.05;91.54;100337.84;8356480;28;20038;-58
2023/03/19 08:38:04;;;;;;;4.25;3.17;;;;;;;14.15;90.75;100357.56;8350375;28;20052;-59
2023/03/19 08:42:05;;;;;;;3.97;3.30;;;;;;;14.01;91.50;100351.94;8355676;28;20046;-59
2023/03/19 08:46:05;;;;;;;4.93;3.55;;;;;;;14.11;91.37;100353.50;8355296;28;20037;-58
2023/03/19 08:50:07;;;;;;;5.30;3.50;;;;;;;14.28;90.52;100360.69;8370717;28;20039;-59
2023/03/19 08:54:10;;;;;;;4.78;3.63;;;;;;;14.40;89.71;100353.91;8387383;28;20059;-59
2023/03/19 08:58:10;;;;;;;5.20;3.70;;;;;;;14.64;89.07;100345.72;8371649;28;20415;-59
2023/03/19 09:02:12;;;;;;;7.03;4.15;;;;;;;14.87;87.50;100346.75;8360629;28;20067;-59
2023/03/19 09:06:13;;;;;;;4.18;3.65;;;;;;;15.10;86.27;100353.16;8342226;28;20055;-57
2023/03/19 11:04:16;;;;;;;1.23;0.82;;;;;;;16.75;79.81;100405.56;8406191;27;20043;-57
2023/03/19 11:08:20;;;;;;;4.85;1.85;;;;;;;16.69;80.26;100403.56;8429323;28;20506;-60
2023/03/19 11:12:26;;;;;;;0.95;0.70;;;;;;;16.59;80.23;100402.97;8425216;28;20206;-58
2023/03/19 11:16:27;;;;;;;0.20;0.20;;;;;;;16.78;75.31;100399.75;8425796;28;20036;-58
2023/03/19 11:20:37;;;;;;;0.40;0.30;;;;;;;17.29;76.29;100393.44;8422892;28;20097;-59
2023/03/19 11:24:40;;;;;;;0.57;0.40;;;;;;;18.56;71.14;100398.34;8406505;28;20123;-59
2023/03/19 11:28:41;;;;;;;0.93;0.60;;;;;;;21.89;64.08;100399.75;8419993;28;20036;-58
2023/03/19 11:37:17;;;;;;;0.40;0.40;;;;;;;24.50;52.48;100404.00;8404765;27;20464;-59
2023/03/19 11:41:46;;;;;;;0.43;0.30;;;;;;;24.11;50.43;100401.72;8399504;27;20052;-59
2023/03/19 11:46:11;;;;;;;0.47;0.30;;;;;;;20.59;58.75;100411.56;8398974;27;20466;-58
2023/03/19 11:50:26;;;;;;;1.58;0.38;;;;;;;18.88;64.43;100402.47;8399488;27;20380;-58
2023/03/19 11:54:53;;;;;;;0.35;0.30;;;;;;;18.21;66.69;100396.44;8399351;27;20036;-59
2023/03/19 12:03:56;;;;;;;1.58;0.50;;;;;;;17.35;70.63;100395.41;8351709;27;20476;-58
2023/03/19 12:08:22;;;;;;;1.35;0.20;;;;;;;17.16;72.11;100396.81;8349824;28;20045;-58
2023/03/19 12:12:42;;;;;;;0.65;0.50;;;;;;;17.06;74.47;100373.53;8349504;28;20124;-58
2023/03/19 12:16:57;;;;;;;0.65;0.50;;;;;;;17.01;72.32;100382.28;8346322;28;20286;-58
2023/03/19 12:21:13;;;;;;;0.45;0.45;;;;;;;17.77;69.54;100384.72;8348817;28;20119;-58
2023/03/19 12:25:55;;;;;;;0.40;0.40;;;;;;;18.36;68.77;100389.03;8348611;28;20522;-58
2023/03/19 12:30:25;;;;;;;0.80;0.30;;;;;;;18.36;67.77;100391.75;8347964;28;20033;-59
2023/03/19 12:34:32;;;;;;;0.40;0.30;;;;;;;18.07;66.69;100380.91;8348459;28;20037;-58
2023/03/19 12:38:39;;;;;;;0.43;0.30;;;;;;;17.96;66.69;100386.88;8349625;28;20053;-59
2023/03/19 12:42:40;;;;;;;0.30;0.30;;;;;;;17.49;68.80;100386.44;8348511;28;20064;-58
2023/03/19 12:50:58;;;;;;;0.75;0.40;;;;;;;17.13;70.00;100374.47;8405493;27;20468;-58
2023/03/19 12:55:03;;;;;;;;;;;;;;;17.18;69.50;100378.38;8400212;27;20037;-60
2023/03/19 12:59:23;;;;;;;0.85;0.60;;;;;;;17.21;68.54;100378.00;8400195;27;19917;-60
2023/03/19 13:03:34;;;;;;;0.52;0.50;;;;;;;16.81;71.20;100385.72;8391223;28;20028;-59
2023/03/19 13:07:49;;;;;;;0.40;0.30;;;;;;;16.90;75.03;100395.53;8380538;28;20040;-53
2023/03/19 13:11:58;;;;;;;0.60;0.40;;;;;;;16.36;80.60;100400.19;8380242;28;20051;-54
2023/03/19 13:16:11;;;;;;;2.50;0.40;;;;;;;15.96;88.18;100400.44;8382899;28;20043;-54
2023/03/19 13:24:48;;;;;;;2.42;0.70;;;;;;;14.98;100.00;100402.72;8318432;28;20473;-53
2023/03/19 13:28:56;;;;;;;1.48;0.90;;;;;;;14.84;100.00;100396.09;8317184;28;20443;-53
2023/03/19 13:33:03;;;;;;;1.33;0.80;;;;;;;14.92;100.00;100401.53;8317236;28;20046;-53
2023/03/19 13:37:14;;;;;;;1.15;0.85;;;;;;;14.79;100.00;100393.00;8317499;28;20045;-52
2023/03/19 13:45:51;;;;;;;11.13;7.28;;;;;;;15.02;96.67;100391.31;8351101;27;20404;-53
2023/03/19 13:54:31;;;;;;;0.98;0.50;;;;;;;15.35;88.31;100384.78;8407015;27;20369;-54
2023/03/19 13:58:51;;;;;;;0.88;0.50;;;;;;;15.34;92.40;100377.63;8399406;27;20441;-54
2023/03/19 14:02:52;;;;;;;0.50;0.47;;;;;;;15.24;95.81;100384.28;8389833;27;20114;-54
2023/03/19 14:06:57;;;;;;;1.17;0.70;;;;;;;15.21;96.50;100377.31;8398119;27;20539;-54
2023/03/19 14:10:59;;;;;;;0.73;0.40;;;;;;;15.11;95.27;100379.38;8400043;27;20074;-54
2023/03/19 14:15:14;;;;;;;0.55;0.30;;;;;;;15.21;87.49;100390.94;8399442;27;20048;-55
2023/03/19 14:19:18;;;;;;;0.93;0.50;;;;;;;15.29;88.24;100390.94;8408981;27;20551;-54
2023/03/19 14:23:23;;;;;;;0.57;0.50;;;;;;;15.37;87.17;100388.19;8414110;28;20557;-54
2023/03/19 14:27:31;;;;;;;0.60;0.40;;;;;;;15.32;85.13;100392.44;8392385;28;20382;-54
2023/03/19 14:31:41;;;;;;;0.98;0.60;;;;;;;15.27;88.79;100395.69;8381956;28;20029;-54
2023/03/19 14:35:45;;;;;;;2.65;0.40;;;;;;;15.34;86.45;100399.41;8389722;28;20040;-55
2023/03/19 14:39:53;;;;;;;1.10;0.60;;;;;;;15.24;87.81;100403.34;8426377;28;20040;-54
2023/03/19 14:44:23;;;;;;;3.33;0.60;;;;;;;15.07;91.66;100407.97;8421600;27;20036;-54
2023/03/19 14:48:57;;;;;;;1.60;0.70;;;;;;;14.86;96.21;100421.28;8448520;27;20032;-54
2023/03/19 14:53:03;;;;;;;1.80;0.85;;;;;;;14.74;100.00;100422.63;8393909;27;20041;-54
2023/03/19 14:57:06;;;;;;;2.10;1.35;;;;;;;14.51;100.00;100427.03;8395931;28;20040;-55
2023/03/19 15:01:07;;;;;;;3.10;2.50;;;;;;;14.38;100.00;100426.66;8387453;28;20060;-57
2023/03/19 15:05:15;;;;;;;2.28;1.45;;;;;;;14.32;100.00;100424.59;8367903;28;20508;-56
2023/03/19 15:09:25;;;;;;;1.77;1.63;;;;;;;14.32;100.00;100430.06;8362788;28;20064;-55
2023/03/19 15:13:39;;;;;;;2.15;1.80;;;;;;;14.29;100.00;100435.81;8342208;28;20399;-55
2023/03/19 15:17:39;;;;;;;3.63;3.17;;;;;;;14.31;100.00;100433.78;8339927;28;20073;-56
2023/03/19 15:21:40;;;;;;;1.90;1.60;;;;;;;14.29;100.00;100433.09;8361521;28;20037;-55
2023/03/19 15:25:59;;;;;;;1.65;0.85;;;;;;;14.35;100.00;100432.44;8362769;28;20488;-55
2023/03/19 15:30:00;;;;;;;2.95;1.20;;;;;;;14.33;100.00;100439.91;8360641;28;20036;-55
2023/03/19 15:34:01;;;;;;;4.00;1.83;;;;;;;14.31;100.00;100430.22;8375477;28;20067;-55
2023/03/19 15:38:07;;;;;;;3.53;3.03;;;;;;;14.33;100.00;100434.47;8371724;28;20041;-60
2023/03/19 15:42:09;;;;;;;5.90;3.70;;;;;;;14.40;100.00;100435.53;8372267;28;20119;-59
2023/03/19 15:46:13;;;;;;;5.43;3.25;;;;;;;14.55;100.00;100436.53;8371846;28;20410;-59
2023/03/19 15:50:18;;;;;;;8.73;4.53;;;;;;;14.70;100.00;100431.31;8371195;28;20469;-60
2023/03/19 15:54:19;;;;;;;6.60;4.43;;;;;;;14.74;100.00;100433.53;8414018;28;20036;-60
2023/03/19 15:58:31;;;;;;;6.03;4.20;;;;;;;14.83;100.00;100443.38;8381968;28;20564;-61
2023/03/19 16:02:32;;;;;;;7.20;5.22;;;;;;;14.88;100.00;100443.72;8388439;28;20040;-61
2023/03/19 16:06:39;;;;;;;6.13;4.35;;;;;;;14.94;100.00;100462.09;8387410;28;20093;-61
2023/03/19 16:10:41;;;;;;;9.75;5.00;;;;;;;15.00;100.00;100466.84;8386685;28;20041;-60
2023/03/19 16:14:42;;;;;;;6.93;4.75;;;;;;;15.05;100.00;100463.63;8386896;28;20044;-60
2023/03/19 16:18:50;;;;;;;10.38;4.65;;;;;;;15.04;100.00;100479.09;8387332;28;20125;-60
2023/03/19 16:22:54;;;;;;;6.68;3.85;;;;;;;15.03;100.00;100480.13;8385079;28;20036;-61
2023/03/19 16:26:56;;;;;;;6.90;4.60;;;;;;;14.97;100.00;100483.53;8387241;28;20068;-61
2023/03/19 16:30:57;;;;;;;5.93;3.42;;;;;;;14.95;100.00;100491.00;8385826;28;20477;-61
2023/03/19 16:35:15;;;;;;;7.85;3.72;;;;;;;15.02;97.62;100486.59;8384465;28;20052;-60
2023/03/19 16:39:34;;;;;;;5.18;3.85;;;;;;;14.98;99.42;100490.66;8366397;28;20071;-61
2023/03/19 16:43:35;;;;;;;4.88;3.80;;;;;;;14.88;97.93;100495.44;8379380;28;20041;-61
2023/03/19 16:47:36;;;;;;;8.40;4.00;;;;;;;14.85;97.58;100490.31;8386334;28;20045;-61
2023/03/19 16:51:37;;;;;;;6.25;3.83;;;;;;;14.86;95.66;100502.94;8384403;28;20047;-61
2023/03/19 16:55:38;;;;;;;9.73;3.72;;;;;;;14.81;97.26;100505.31;8385896;28;20086;-60
2023/03/19 16:59:38;;;;;;;11.70;4.05;;;;;;;14.71;96.37;100504.63;8384603;28;20048;-59
2023/03/19 17:03:39;;;;;;;6.88;3.55;;;;;;;14.66;94.72;100506.09;8369582;28;20067;-54
2023/03/19 17:07:40;;;;;;;7.70;4.63;;;;;;;14.52;93.76;100515.78;8384611;28;20064;-55
2023/03/19 17:11:42;;;;;;;9.30;3.58;;;;;;;14.58;93.97;100520.53;8386109;28;20449;-54
2023/03/19 17:15:43;;;;;;;6.47;5.20;;;;;;;14.50;100.00;100531.44;8386194;28;20049;-55
2023/03/19 17:19:45;;;;;;;8.07;6.03;;;;;;;14.31;100.00;100539.88;8385392;28;20044;-55
2023/03/19 17:23:46;;;;;;;11.93;6.80;;;;;;;14.28;100.00;100555.66;8384244;28;20325;-53
2023/03/19 17:27:47;;;;;;;10.00;6.32;;;;;;;14.19;100.00;100552.00;8382553;28;20028;-54
2023/03/19 17:31:48;;;;;;;11.95;6.53;;;;;;;14.23;100.00;100564.28;8380250;28;20406;-54
2023/03/19 17:35:49;;;;;;;9.98;5.15;;;;;;;14.21;100.00;100582.59;8378255;28;20483;-54
2023/03/19 17:39:50;;;;;;;11.35;6.25;;;;;;;14.12;100.00;100585.44;8373475;28;20040;-54
2023/03/19 17:43:51;;;;;;;9.30;6.85;;;;;;;14.12;100.00;100593.59;8392632;28;20187;-54
2023/03/19 17:47:55;;;;;;;10.75;5.82;;;;;;;14.15;100.00;100605.00;8366885;28;20396;-55
2023/03/19 17:51:57;;;;;;;9.23;5.85;;;;;;;14.17;100.00;100602.97;8362813;28;20537;-55
2023/03/19 17:55:57;;;;;;;7.70;5.53;;;;;;;14.06;100.00;100600.50;8364118;28;20041;-54
2023/03/19 17:59:58;;;;;;;7.88;5.10;;;;;;;14.09;100.00;100602.91;8383901;28;20138;-55
2023/03/19 18:03:59;;;;;;;8.70;5.00;;;;;;;13.97;100.00;100606.09;8376017;28;20461;-54
2023/03/19 18:08:00;;;;;;;8.85;5.03;;;;;;;13.68;100.00;100617.25;8388491;28;20044;-54
2023/03/19 18:12:00;;;;;;;7.47;5.13;;;;;;;13.57;100.00;100620.19;8366743;28;20075;-54
2023/03/19 18:16:02;;;;;;;6.63;5.88;;;;;;;13.51;100.00;100621.69;8382550;28;20048;-54
2023/03/19 18:20:04;;;;;;;10.90;5.82;;;;;;;13.57;100.00;100628.34;8383861;28;20040;-55
2023/03/19 18:24:05;;;;;;;9.88;5.40;;;;;;;13.39;100.00;100633.81;8372924;28;20041;-54
2023/03/19 18:28:07;;;;;;;7.88;5.25;;;;;;;13.33;100.00;100633.59;8374822;28;20097;-54
2023/03/19 18:32:15;;;;;;;8.05;5.20;;;;;;;13.24;100.00;100645.38;8357139;28;20047;-55
2023/03/19 18:36:19;;;;;;;10.75;4.80;;;;;;;13.31;100.00;100649.19;8367652;28;20465;-59
2023/03/19 18:40:23;;;;;;;9.98;5.30;;;;;;;13.40;100.00;100650.97;8369641;28;20117;-59
2023/03/19 18:44:24;;;;;;;8.73;5.50;;;;;;;13.19;100.00;100647.69;8372566;28;20086;-59
2023/03/19 18:48:27;;;;;;;10.88;6.25;;;;;;;13.17;100.00;100650.56;8386963;28;20090;-59
2023/03/19 18:52:28;;;;;;;7.55;4.60;;;;;;;13.08;100.00;100658.75;8380877;28;20048;-59
2023/03/19 18:56:31;;;;;;;7.78;5.60;;;;;;;13.26;100.00;100656.91;8365064;28;20056;-59
2023/03/19 19:00:36;;;;;;;7.55;4.15;;;;;;;13.19;100.00;100664.84;8384121;28;20067;-59
2023/03/19 19:04:37;;;;;;;10.80;4.65;;;;;;;13.03;100.00;100663.81;8384747;28;20037;-59
2023/03/19 19:08:37;;;;;;;7.13;4.38;;;;;;;12.93;100.00;100668.41;8381215;28;20044;-56
2023/03/19 19:12:43;;;;;;;9.48;3.83;;;;;;;12.96;100.00;100674.38;8375340;28;20050;-58
2023/03/19 19:16:44;;;;;;;5.57;3.50;;;;;;;13.11;100.00;100681.03;8383434;28;20474;-60
2023/03/19 19:20:46;;;;;;;12.93;4.88;;;;;;;13.22;100.00;100685.41;8383019;28;20071;-60
2023/03/19 19:24:46;;;;;;;10.45;5.43;;;;;;;13.18;100.00;100692.16;8364750;28;20673;-59
2023/03/19 19:28:49;;;;;;;13.15;4.10;;;;;;;13.14;100.00;100693.44;8372158;28;20416;-59
2023/03/19 19:32:50;;;;;;;7.53;3.85;;;;;;;13.15;100.00;100701.44;8382657;28;20123;-59
2023/03/19 19:36:51;;;;;;;9.48;4.35;;;;;;;13.13;100.00;100708.91;8374693;28;20340;-59
2023/03/19 19:40:54;;;;;;;13.10;5.13;;;;;;;13.14;100.00;100717.88;8384340;28;20094;-60
2023/03/19 19:44:57;;;;;;;15.30;5.32;;;;;;;13.16;100.00;100724.00;8383615;28;20426;-60
2023/03/19 19:48:58;;;;;;;10.43;5.10;;;;;;;13.21;100.00;100727.13;8386022;28;20060;-59
2023/03/19 19:52:59;;;;;;;13.27;5.60;;;;;;;13.08;100.00;100737.47;8377132;28;20048;-59
2023/03/19 19:57:00;;;;;;;10.80;6.22;;;;;;;12.99;100.00;100749.25;8363246;28;20547;-59
2023/03/19 20:01:00;;;;;;;16.42;8.88;;;;;;;13.22;100.00;100756.00;8362587;28;20550;-58
2023/03/19 20:05:02;;;;;;;26.52;13.25;;;;;;;13.26;100.00;100752.81;8387764;28;20064;-59
2023/03/19 20:09:03;;;;;;;34.00;17.58;;;;;;;13.25;100.00;100766.53;8352834;28;20041;-58
2023/03/19 20:13:04;;;;;;;49.28;25.00;;;;;;;13.20;100.00;100763.41;8350649;28;20098;-58
2023/03/19 20:17:05;;;;;;;50.10;25.15;;;;;;;13.14;100.00;100769.44;8353647;28;20485;-54
2023/03/19 20:21:06;;;;;;;49.95;24.70;;;;;;;13.21;100.00;100773.28;8381275;28;20041;-54
2023/03/19 20:25:06;;;;;;;50.63;25.15;;;;;;;13.15;100.00;100771.19;8384878;28;20514;-55
2023/03/19 20:29:13;;;;;;;51.42;25.95;;;;;;;13.18;100.00;100784.44;8373762;28;20429;-55
2023/03/19 20:33:15;;;;;;;47.85;25.15;;;;;;;13.10;100.00;100787.06;8365318;28;20047;-54
2023/03/19 20:37:15;;;;;;;50.72;26.10;;;;;;;13.02;100.00;100786.97;8376557;28;20049;-54
2023/03/19 20:41:20;;;;;;;50.10;24.85;;;;;;;12.97;100.00;100790.09;8370207;28;20155;-54
2023/03/19 20:45:23;;;;;;;58.05;26.13;;;;;;;12.91;100.00;100803.41;8376858;28;20036;-58
2023/03/19 20:49:23;;;;;;;50.63;26.23;;;;;;;12.79;100.00;100813.59;8392414;28;20036;-59
2023/03/19 20:53:25;;;;;;;47.90;24.95;;;;;;;12.81;100.00;100818.88;8378799;28;20052;-59
2023/03/19 20:57:29;;;;;;;47.97;25.55;;;;;;;12.70;100.00;100819.03;8382648;28;20495;-59
2023/03/19 21:01:30;;;;;;;52.20;25.95;;;;;;;12.65;100.00;100833.03;8381535;28;20486;-58
2023/03/19 21:05:35;;;;;;;52.50;28.70;;;;;;;12.47;100.00;100831.22;8375912;28;20114;-59
2023/03/19 21:09:35;;;;;;;53.70;27.80;;;;;;;12.33;100.00;100842.50;8380457;28;20044;-59
2023/03/19 21:13:35;;;;;;;50.40;28.92;;;;;;;12.34;100.00;100841.50;8382710;28;20044;-59
2023/03/19 21:17:36;;;;;;;56.17;30.30;;;;;;;12.32;100.00;100847.06;8381277;28;20051;-59